Airfield :
LOGIN :

Register | Disclaimer

   EN    FR    IT 

 










Legend :    VFR   Marginal VFR   IFR   Intensive IFR   Very Intensive IFR
Visi :
Ceiling :
>= 8 km
>= 3000ft
5 to 8 km
1000 to 3000 ft
1500m to 5 km
500 to 1000 ft
800 to 1500m
200 to 500 ft
< 800m
< 200 ft
Symbols :   Thunderstorms  Fog  Heavy snow  Heavy precipitations  Wind > 20 kt
SIGMETs :     Misc.  Thunderstorms  Icing  Turbulence  Mountain Waves  Volcanic Ashes







- Airport Elevation : 2776 ft
- IATA code : VLL


LEVD - Valladolid

CURRENT METAR :
  • 261230Z 33005KT CAVOK 26/09 Q1019

EXPIRED METARs :
  • 261200Z 20002KT CAVOK 26/09 Q1020
  • 261130Z 27003KT CAVOK 24/09 Q1020
  • 261100Z 17004KT CAVOK 23/09 Q1020
  • 261030Z 14002KT CAVOK 23/09 Q1020
  • 261000Z 07001KT CAVOK 22/09 Q1020
  • 260930Z 08002KT CAVOK 21/09 Q1020

TAF TAF LEVD
Valid from the 26 at 12:00 until the 27 at 12:00 UTC


261100Z 2612/2712 VRB05KT CAVOK TX29/2615Z TN15/2705Z
No reported NOTAMs for that airfield.



MET'MAP, your aeronautical weather chart ! - Copyright ORBIFLY December 2007 - Disclaimer

ORBIFLY MET'MAP TEAM :

Programming & Development : Alexandra Zaïnal
Concept & Development : Baudouin d'Aumeries
Co-Development & Prog : Marc-Olivier Méhu
Technical & hardware support : Manuel Goepfert

Contact : metmap@orbifly.com




SOURCES & CREDITS :

   NOAA